CHX12 EDDN-EDDN

Flight info

Callsign CHX12
Flight time 0h 12m
Altitude
Route
Aircraft EC45

Departure

Time 2026-05-04 17:59
Airport Nuremberg Airport (EDDN)

Arrival

Time 2026-05-04 18:12
Airport Nuremberg Airport (EDDN)
Time Latitude Longitude Altitude Speed Heading
2026-05-04 17:52 49.49439 11.06866 1022 ft 0 kts 279°
2026-05-04 17:53 49.49437 11.06864 1024 ft 1 kts 352°
2026-05-04 17:53 49.49443 11.06896 1027 ft 4 kts 11°
2026-05-04 17:53 49.49463 11.06923 1032 ft 5 kts
2026-05-04 17:53 49.49500 11.06934 1035 ft 6 kts
2026-05-04 17:54 49.49514 11.07022 1043 ft 10 kts 82°
2026-05-04 17:54 49.49505 11.07117 1051 ft 10 kts 78°
2026-05-04 17:54 49.49527 11.07177 1049 ft 9 kts 70°
2026-05-04 17:54 49.49629 11.07231 1047 ft 13 kts 61°
2026-05-04 17:55 49.49634 11.07276 1042 ft 1 kts 101°
2026-05-04 17:55 49.49631 11.07358 1027 ft 20 kts 95°
2026-05-04 17:55 49.49607 11.07560 1029 ft 9 kts 89°
2026-05-04 17:55 49.49588 11.07720 1036 ft 34 kts 92°
2026-05-04 17:56 49.49567 11.07916 1036 ft 13 kts 91°
2026-05-04 17:56 49.49552 11.08096 1035 ft 21 kts 90°
2026-05-04 17:56 49.49536 11.08258 1039 ft 9 kts 90°
2026-05-04 17:56 49.49585 11.08362 1047 ft 14 kts 41°
2026-05-04 17:57 49.49646 11.08453 1056 ft 13 kts 54°
2026-05-04 17:57 49.49687 11.08526 1062 ft 2 kts 52°
2026-05-04 17:57 49.49692 11.08530 1033 ft 2 kts 51°
2026-05-04 17:57 49.49693 11.08531 1032 ft 0 kts 51°
2026-05-04 17:58 49.49693 11.08532 1034 ft 2 kts 49°
2026-05-04 17:58 49.49754 11.08571 1053 ft 10 kts 19°
2026-05-04 17:58 49.49789 11.08552 1058 ft 4 kts 312°
2026-05-04 17:58 49.49806 11.08504 1154 ft 17 kts 282°
2026-05-04 17:59 49.49869 11.07855 1276 ft 105 kts 284°
2026-05-04 17:59 49.49543 11.06754 1448 ft 128 kts 220°
2026-05-04 17:59 49.48116 11.06358 1705 ft 95 kts 130°
2026-05-04 18:00 49.48017 11.07262 1729 ft 87 kts 77°
2026-05-04 18:00 49.48070 11.08203 1758 ft 90 kts 74°
2026-05-04 18:00 49.48144 11.09175 1791 ft 93 kts 75°
2026-05-04 18:00 49.48225 11.10175 1833 ft 95 kts 73°
2026-05-04 18:01 49.48340 11.11186 1861 ft 97 kts 72°
2026-05-04 18:01 49.48423 11.12220 1882 ft 101 kts 89°
2026-05-04 18:01 49.48337 11.13251 1927 ft 93 kts 88°
2026-05-04 18:02 49.49135 11.14049 1900 ft 80 kts 332°
2026-05-04 18:02 49.49432 11.13384 1807 ft 77 kts 279°
2026-05-04 18:02 49.49439 11.12597 1672 ft 71 kts 269°
2026-05-04 18:02 49.49472 11.11823 1592 ft 78 kts 276°
2026-05-04 18:03 49.49570 11.10818 1237 ft 120 kts 280°
2026-05-04 18:03 49.49698 11.09474 1121 ft 135 kts 279°
2026-05-04 18:03 49.49855 11.08048 1094 ft 140 kts 281°
2026-05-04 18:03 49.49987 11.06667 1384 ft 118 kts 279°
2026-05-04 18:04 49.50081 11.05486 1552 ft 106 kts 278°
2026-05-04 18:04 49.49858 11.04458 1610 ft 111 kts 223°
2026-05-04 18:04 49.48532 11.05092 1706 ft 107 kts 117°
2026-05-04 18:05 49.48419 11.06161 1770 ft 99 kts 81°
2026-05-04 18:05 49.48450 11.07242 1726 ft 104 kts 79°
2026-05-04 18:05 49.48482 11.08368 1690 ft 107 kts 79°
2026-05-04 18:05 49.48602 11.09516 1424 ft 110 kts 50°
2026-05-04 18:06 49.49704 11.09350 1108 ft 94 kts 283°
2026-05-04 18:06 49.49828 11.08245 1059 ft 112 kts 278°
2026-05-04 18:06 49.49938 11.07070 1041 ft 108 kts 277°
2026-05-04 18:07 49.50010 11.06063 1161 ft 83 kts 275°
2026-05-04 18:07 49.50049 11.05198 1207 ft 84 kts 275°
2026-05-04 18:07 49.49994 11.04256 1270 ft 103 kts 248°
2026-05-04 18:07 49.49278 11.03862 1345 ft 126 kts 169°
2026-05-04 18:08 49.48711 11.04823 1454 ft 129 kts 99°
2026-05-04 18:08 49.48638 11.06165 1603 ft 130 kts 91°
2026-05-04 18:08 49.48529 11.07562 1704 ft 136 kts 93°
2026-05-04 18:08 49.48382 11.09010 1830 ft 138 kts 95°
2026-05-04 18:09 49.48714 11.11468 1725 ft 120 kts 24°
2026-05-04 18:09 49.49643 11.10259 1259 ft 118 kts 273°
2026-05-04 18:10 49.49752 11.08966 1124 ft 134 kts 278°
2026-05-04 18:10 49.49860 11.07730 1184 ft 102 kts 276°
2026-05-04 18:10 49.49949 11.06737 1176 ft 87 kts 276°
2026-05-04 18:10 49.50024 11.05898 1300 ft 84 kts 280°
2026-05-04 18:11 49.49526 11.05234 1309 ft 118 kts 187°
2026-05-04 18:11 49.48830 11.05882 1351 ft 125 kts 117°
2026-05-04 18:11 49.48755 11.07181 1379 ft 121 kts 84°
2026-05-04 18:11 49.48751 11.08465 1423 ft 120 kts 88°
2026-05-04 18:12 49.48679 11.09628 1587 ft 96 kts 88°
2026-05-04 18:12 49.48681 11.10452 1854 ft 59 kts 76°
2026-05-04 18:12 49.48755 11.10904 1963 ft 29 kts 68°
2026-05-04 18:12 49.48804 11.11020 1982 ft 5 kts 72°
2026-05-04 18:13 49.48804 11.11024 1977 ft 0 kts 75°
2026-05-04 18:13 49.48803 11.11024 1977 ft 0 kts 75°
2026-05-04 18:14 49.48804 11.11024 1977 ft 0 kts 75°
2026-05-04 18:14 49.48807 11.11032 1968 ft 5 kts 75°
2026-05-04 18:14 49.48847 11.11206 1908 ft 33 kts 56°
2026-05-04 18:15 49.49528 11.11161 1447 ft 69 kts 291°
2026-05-04 18:15 49.49764 11.08851 1079 ft 124 kts 275°
2026-05-04 18:15 49.49884 11.07635 1103 ft 102 kts 273°
2026-05-04 18:16 49.49878 11.06661 1329 ft 96 kts 255°
2026-05-04 18:16 49.49275 11.06065 1520 ft 101 kts 187°
2026-05-04 18:16 49.48704 11.06456 1645 ft 89 kts 122°
2026-05-04 18:17 49.48497 11.07869 1801 ft 51 kts 79°
2026-05-04 18:17 49.48481 11.08399 1859 ft 49 kts 73°
2026-05-04 18:17 49.48499 11.08877 1937 ft 11 kts 70°
2026-05-04 18:18 49.48495 11.08780 1906 ft 6 kts 70°
2026-05-04 18:18 49.48487 11.08765 1894 ft 0 kts 71°
2026-05-04 18:18 49.48488 11.08765 1891 ft 0 kts 71°
2026-05-04 18:19 49.48784 11.10250 1657 ft 126 kts 60°
2026-05-04 18:19 49.49117 11.11315 1616 ft 88 kts 40°
2026-05-04 18:19 49.49530 11.11388 1450 ft 66 kts 304°
2026-05-04 18:20 49.49601 11.10698 1368 ft 74 kts 268°
2026-05-04 18:20 49.49676 11.09764 1197 ft 97 kts 275°
2026-05-04 18:20 49.49780 11.08710 1129 ft 101 kts 275°
2026-05-04 18:20 49.49865 11.07809 1085 ft 56 kts 264°
2026-05-04 18:21 49.49808 11.07674 1048 ft 18 kts 160°
2026-05-04 18:21 49.49757 11.07693 1022 ft 0 kts 142°
2026-05-04 18:21 49.49745 11.07704 1040 ft 8 kts 147°
2026-05-04 18:22 49.49671 11.07758 1054 ft 15 kts 158°
2026-05-04 18:22 49.49607 11.07707 1059 ft 13 kts 249°
2026-05-04 18:22 49.49614 11.07509 1054 ft 16 kts 265°
2026-05-04 18:22 49.49622 11.07426 1067 ft 10 kts 263°
2026-05-04 18:23 49.49606 11.07352 1059 ft 4 kts 202°
2026-05-04 18:23 49.49566 11.07338 1043 ft 4 kts 203°
2026-05-04 18:23 49.49565 11.07342 1023 ft 0 kts 198°